Meteo Giornale » Osservazioni meteo Stati Uniti (USA) » New York City Central Park

ore: 00:51 - Osservazioni Meteo New York City Central Park
Lat. 40° 47' N Lon. 73° 58' W Alt. 47 metri s.l.m.

coperto America/New_York

18 °C

Coperto

Temp. 24 Ore

17 °C

27 °C

Nord

0 Km/h

Dew point 17 °C

Umidità 93 %

Visibilità  14 Km

Il sole sorge alle ore 06:07

Il sole tramonta alle ore 19:51

Data e Ora Cielo e Fenomeni T °C DP °C Um. % Pres. hPa Vis. km Vento km/h
Oggi h: 00:51 coperto Coperto 18 17 93 1014 14 N 0
Ieri h: 23:51 molto_nuvoloso Molto Nuvoloso 18 16 88 1014 10 N 0
Ieri h: 22:51 molto_nuvoloso Molto Nuvoloso 18 17 93 1015 10 N 5.5
Ieri h: 21:51 coperto_pioggia Pioggia Debole 17 16 93 1016 10 E 7.4
Ieri h: 21:46 coperto_pioggia Pioggia Debole Foschia 17 16 93 1016 6 N/NE 7.4
Ieri h: 21:41 coperto_pioggia Pioggia Foschia 17 16 93 1016 2 N 11.1
Ieri h: 21:36 coperto_pioggia Pioggia Nebbia 18 16 88 1016 2 NE 24
Ieri h: 21:28 coperto_pioggia Pioggia 22 16 68 1016 2 N/NE 16.7
Ieri h: 20:51 molto_nuvoloso Molto Nuvoloso 23 14 56 1015 10 E/NE 16.7
Ieri h: 19:51 nuvoloso Nuvoloso 24 12 47 1014 10 N 5.5
Ieri h: 18:51 coperto Coperto 24 13 50 1014 10 N 0
Ieri h: 17:51 molto_nuvoloso Molto Nuvoloso 26 13 44 1014 10 N 5.5
Ieri h: 16:51 coperto Coperto 26 13 44 1014 10 N 5.5
Ieri h: 15:51 molto_nuvoloso Molto Nuvoloso 26 13 44 1015 10 N 0
Ieri h: 14:51 coperto Coperto 26 12 41 1016 10 N 0
Ieri h: 13:51 coperto Coperto 27 12 39 1016 10 N 7.4
Ieri h: 12:51 molto_nuvoloso Molto Nuvoloso 26 12 41 1017 10 N 5.5
Ieri h: 11:51 coperto Coperto 24 11 43 1017 10 N 5.5
Ieri h: 10:51 coperto Coperto 23 12 49 1018 10 N 0
Ieri h: 09:51 coperto Coperto 23 13 53 1018 10 N 5.5
Ieri h: 08:51 molto_nuvoloso Molto Nuvoloso 22 13 56 1018 10 N 5.5
Ieri h: 07:51 coperto Coperto 21 13 60 1018 10 N 5.5
Ieri h: 06:51 sereno Sereno 19 13 68 1017 10 N 5.5
Ieri h: 05:51 sereno Sereno 20 13 64 1017 10 N 5.5
Ieri h: 04:51 sereno Sereno 19 14 72 1017 10 E/NE 9.3
Ieri h: 03:51 sereno Sereno 20 14 68 1017 10 E 7.4
Ieri h: 02:51 poco_nuvoloso Poco Nuvoloso 22 15 64 1017 10 N 5.5
Ieri h: 01:51 sereno Sereno 23 14 56 1017 10 N 11.1